createdAt,value
2019-02-20T00:00:51.135Z,7.17
2019-02-20T00:01:57.856Z,8.73
2019-02-20T00:03:04.873Z,6.65
2019-02-20T00:04:11.641Z,7.47
2019-02-20T00:05:18.953Z,8.00
2019-02-20T00:06:26.323Z,6.90
2019-02-20T00:07:33.532Z,7.80
2019-02-20T00:08:40.225Z,6.80
2019-02-20T00:09:46.909Z,7.80
2019-02-20T00:10:53.809Z,8.70
2019-02-20T00:12:00.503Z,8.10
2019-02-20T00:13:07.711Z,7.03
2019-02-20T00:14:14.748Z,7.47
2019-02-20T00:15:22.128Z,8.45
2019-02-20T00:16:29.757Z,7.42
2019-02-20T00:17:36.832Z,6.87
2019-02-20T00:18:43.548Z,7.47
2019-02-20T00:19:50.670Z,7.80
2019-02-20T00:20:57.359Z,8.78
2019-02-20T00:22:04.489Z,7.50
2019-02-20T00:23:11.198Z,7.17
2019-02-20T00:24:18.242Z,7.10
2019-02-20T00:25:25.240Z,7.60
2019-02-20T00:26:31.905Z,8.65
2019-02-20T00:27:38.816Z,7.70
2019-02-20T00:28:45.982Z,7.70
2019-02-20T00:29:53.048Z,7.77
2019-02-20T00:30:59.769Z,7.80
2019-02-20T00:32:06.849Z,7.08
2019-02-20T00:33:14.566Z,8.30
2019-02-20T00:34:21.343Z,7.73
2019-02-20T00:35:28.360Z,8.53
2019-02-20T00:36:35.091Z,8.30
2019-02-20T00:37:42.217Z,9.53
2019-02-20T00:38:48.982Z,8.25
2019-02-20T00:39:56.080Z,7.12
2019-02-20T00:41:02.740Z,7.10
2019-02-20T00:42:09.465Z,7.40
2019-02-20T00:43:16.170Z,8.00
2019-02-20T00:44:30.838Z,8.08
2019-02-20T00:45:49.401Z,6.87
2019-02-20T00:47:14.471Z,8.50
2019-02-20T00:48:55.501Z,8.43
2019-02-20T00:50:02.227Z,7.37
2019-02-20T00:51:18.545Z,8.48
2019-02-20T00:52:49.851Z,8.13
2019-02-20T00:53:56.316Z,6.80
2019-02-20T00:55:02.973Z,8.33
2019-02-20T00:56:09.674Z,7.67
2019-02-20T00:57:16.686Z,8.43
2019-02-20T00:58:23.529Z,8.33
2019-02-20T00:59:30.515Z,7.80
2019-02-20T01:00:37.179Z,8.60
2019-02-20T01:01:43.939Z,8.30
2019-02-20T01:02:50.618Z,9.40
2019-02-20T01:03:57.355Z,9.10
2019-02-20T01:05:04.622Z,9.70
2019-02-20T01:06:11.655Z,7.97
2019-02-20T01:07:18.376Z,8.17
2019-02-20T01:08:25.408Z,8.00
2019-02-20T01:09:32.138Z,9.28
2019-02-20T01:10:38.839Z,7.87
2019-02-20T01:11:45.535Z,8.17
2019-02-20T01:12:53.970Z,8.73
2019-02-20T01:14:00.776Z,9.77
2019-02-20T01:15:08.762Z,8.73
2019-02-20T01:16:15.464Z,8.10
2019-02-20T01:17:22.477Z,9.60
2019-02-20T01:18:29.534Z,8.43
2019-02-20T01:19:36.276Z,9.73
2019-02-20T01:20:42.973Z,8.20
2019-02-20T01:21:50.041Z,9.20
2019-02-20T01:22:59.791Z,9.98
2019-02-20T01:24:05.606Z,7.60
2019-02-20T01:25:13.741Z,8.20
2019-02-20T01:26:20.620Z,9.33
2019-02-20T01:27:27.582Z,9.70
2019-02-20T01:28:34.530Z,9.97
2019-02-20T01:29:41.273Z,9.07
2019-02-20T01:30:48.013Z,9.33
2019-02-20T01:31:54.879Z,9.50
2019-02-20T01:33:02.292Z,8.40
2019-02-20T01:34:08.988Z,9.00
2019-02-20T01:35:15.739Z,8.50
2019-02-20T01:36:22.461Z,9.88
2019-02-20T01:37:29.442Z,9.33
2019-02-20T01:38:36.133Z,8.33
2019-02-20T01:39:42.812Z,8.53
2019-02-20T01:40:49.550Z,10.20
2019-02-20T01:41:56.220Z,9.17
2019-02-20T01:43:03.296Z,9.08
2019-02-20T01:44:10.282Z,9.27
2019-02-20T01:45:17.048Z,9.83
2019-02-20T01:46:23.737Z,9.47
2019-02-20T01:47:30.389Z,8.43
2019-02-20T01:48:37.167Z,9.33
2019-02-20T01:49:44.265Z,8.13
2019-02-20T01:50:51.294Z,8.60
2019-02-20T01:51:58.002Z,10.03
2019-02-20T01:53:10.416Z,9.10
2019-02-20T01:54:13.929Z,9.43
2019-02-20T01:55:20.703Z,9.73
2019-02-20T01:56:27.747Z,8.30
2019-02-20T01:57:34.588Z,8.77
2019-02-20T01:58:41.355Z,9.60
2019-02-20T01:59:48.068Z,11.00
2019-02-20T02:00:55.156Z,10.30
2019-02-20T02:02:02.186Z,9.38
2019-02-20T02:03:08.879Z,9.17
2019-02-20T02:04:15.845Z,9.50
2019-02-20T02:05:22.701Z,10.70
2019-02-20T02:06:29.764Z,9.80
2019-02-20T02:07:36.454Z,8.87
2019-02-20T02:08:43.223Z,9.70
2019-02-20T02:09:50.319Z,9.60
2019-02-20T02:10:57.040Z,10.50
2019-02-20T02:12:03.745Z,9.30
2019-02-20T02:13:10.795Z,9.00
2019-02-20T02:14:18.250Z,10.23
2019-02-20T02:15:25.287Z,10.30
2019-02-20T02:16:32.162Z,8.77
2019-02-20T02:17:38.824Z,9.90
2019-02-20T02:18:46.262Z,10.73
2019-02-20T02:19:53.017Z,9.60
2019-02-20T02:20:59.747Z,9.70
2019-02-20T02:22:06.877Z,10.07
2019-02-20T02:23:19.622Z,9.73
2019-02-20T02:24:22.549Z,9.93
2019-02-20T02:25:29.233Z,10.70
2019-02-20T02:26:35.905Z,8.17
2019-02-20T02:27:42.643Z,10.10
2019-02-20T02:28:49.773Z,9.80
2019-02-20T02:29:57.326Z,8.90
2019-02-20T02:31:04.062Z,8.60
2019-02-20T02:32:10.807Z,11.12
2019-02-20T02:33:17.822Z,9.30
2019-02-20T02:34:24.551Z,9.50
2019-02-20T02:35:31.234Z,8.98
2019-02-20T02:36:38.202Z,9.13
2019-02-20T02:37:44.971Z,8.30
2019-02-20T02:38:51.651Z,9.10
2019-02-20T02:39:58.512Z,9.30
2019-02-20T02:41:05.514Z,9.10
2019-02-20T02:42:12.625Z,9.73
2019-02-20T02:43:19.636Z,9.03
2019-02-20T02:44:26.327Z,8.87
2019-02-20T02:45:33.178Z,9.70
2019-02-20T02:46:39.877Z,9.55
2019-02-20T02:47:46.562Z,9.63
2019-02-20T02:48:53.327Z,9.87
2019-02-20T02:50:00.336Z,9.00
2019-02-20T02:51:07.374Z,10.97
2019-02-20T02:52:14.663Z,8.80
2019-02-20T02:53:30.285Z,8.53
2019-02-20T02:54:30.209Z,9.37
2019-02-20T02:55:36.953Z,9.47
2019-02-20T02:56:43.783Z,9.87
2019-02-20T02:57:51.182Z,9.07
2019-02-20T02:58:58.228Z,9.43
2019-02-20T03:00:05.848Z,10.57
2019-02-20T03:01:12.652Z,8.80
2019-02-20T03:02:19.828Z,9.60
2019-02-20T03:03:26.570Z,9.43
2019-02-20T03:04:33.296Z,9.77
2019-02-20T03:05:39.944Z,9.67
2019-02-20T03:06:46.672Z,9.07
2019-02-20T03:07:53.551Z,8.57
2019-02-20T03:09:00.315Z,9.53
2019-02-20T03:10:07.816Z,9.80
2019-02-20T03:11:14.627Z,9.67
2019-02-20T03:12:21.657Z,12.30
2019-02-20T03:13:28.602Z,9.38
2019-02-20T03:14:35.279Z,10.90
2019-02-20T03:15:42.067Z,8.63
2019-02-20T03:16:48.759Z,11.10
2019-02-20T03:17:55.474Z,10.90
2019-02-20T03:19:02.183Z,10.40
2019-02-20T03:20:09.472Z,9.67
2019-02-20T03:21:17.396Z,8.70
2019-02-20T03:22:24.050Z,9.73
2019-02-20T03:23:39.802Z,10.27
2019-02-20T03:24:39.156Z,10.30
2019-02-20T03:25:46.421Z,9.87
2019-02-20T03:26:53.075Z,10.77
2019-02-20T03:28:00.160Z,9.97
2019-02-20T03:29:06.869Z,10.00
2019-02-20T03:30:13.915Z,9.80
2019-02-20T03:31:21.108Z,8.63
2019-02-20T03:32:28.279Z,10.17
2019-02-20T03:33:35.358Z,9.77
2019-02-20T03:34:42.396Z,10.03
2019-02-20T03:35:49.528Z,9.77
2019-02-20T03:36:56.207Z,11.10
2019-02-20T03:38:03.337Z,8.75
2019-02-20T03:39:10.054Z,9.97
2019-02-20T03:40:16.753Z,10.33
2019-02-20T03:41:23.752Z,9.60
2019-02-20T03:42:30.495Z,10.47
2019-02-20T03:43:37.171Z,10.00
2019-02-20T03:44:44.189Z,9.90
2019-02-20T03:45:51.199Z,9.70
2019-02-20T03:46:57.963Z,9.40
2019-02-20T03:48:04.750Z,9.10
2019-02-20T03:49:11.773Z,10.07
2019-02-20T03:50:18.817Z,11.53
2019-02-20T03:51:26.081Z,9.80
2019-02-20T03:52:33.499Z,11.87
2019-02-20T03:53:50.850Z,11.53
2019-02-20T03:54:48.682Z,11.13
2019-02-20T03:55:55.570Z,10.97
2019-02-20T03:57:02.700Z,9.43
2019-02-20T03:58:09.379Z,9.30
2019-02-20T03:59:16.540Z,9.80
2019-02-20T04:00:23.276Z,10.30
2019-02-20T04:01:29.986Z,10.10
2019-02-20T04:02:37.211Z,9.60
2019-02-20T04:03:44.324Z,10.07
2019-02-20T04:04:51.377Z,9.30
2019-02-20T04:05:58.091Z,10.17
2019-02-20T04:07:05.139Z,10.30
2019-02-20T04:08:12.234Z,9.53
2019-02-20T04:09:19.286Z,11.00
2019-02-20T04:10:26.647Z,10.90
2019-02-20T04:11:33.326Z,10.93
2019-02-20T04:12:40.428Z,9.60
2019-02-20T04:13:47.345Z,9.10
2019-02-20T04:14:54.415Z,9.83
2019-02-20T04:16:01.478Z,10.77
2019-02-20T04:17:08.500Z,10.20
2019-02-20T04:18:15.344Z,9.40
2019-02-20T04:19:22.379Z,10.30
2019-02-20T04:20:29.448Z,10.37
2019-02-20T04:21:36.150Z,9.60
2019-02-20T04:22:43.243Z,10.10
2019-02-20T04:23:50.006Z,10.57
2019-02-20T04:24:56.681Z,9.93
2019-02-20T04:26:03.704Z,10.43
2019-02-20T04:27:10.829Z,9.87
2019-02-20T04:28:17.766Z,10.95
2019-02-20T04:29:24.588Z,9.80
2019-02-20T04:30:31.911Z,10.03
2019-02-20T04:31:38.599Z,9.50
2019-02-20T04:32:45.666Z,9.90
2019-02-20T04:33:52.805Z,10.13
2019-02-20T04:34:59.490Z,9.40
2019-02-20T04:36:06.205Z,9.57
2019-02-20T04:37:12.936Z,11.97
2019-02-20T04:38:20.421Z,10.97
2019-02-20T04:39:27.118Z,10.37
2019-02-20T04:40:34.610Z,8.77
2019-02-20T04:41:41.716Z,9.40
2019-02-20T04:42:49.083Z,11.23
2019-02-20T04:43:55.832Z,11.03
2019-02-20T04:45:02.532Z,11.10
2019-02-20T04:46:09.602Z,11.03
2019-02-20T04:47:16.299Z,10.17
2019-02-20T04:48:23.222Z,10.97
2019-02-20T04:49:30.145Z,9.80
2019-02-20T04:50:37.128Z,11.27
2019-02-20T04:51:44.018Z,10.10
2019-02-20T04:52:50.759Z,10.57
2019-02-20T04:53:57.598Z,11.57
2019-02-20T04:55:04.378Z,10.90
2019-02-20T04:56:11.146Z,10.43
2019-02-20T04:57:17.964Z,11.53
2019-02-20T04:58:25.311Z,10.33
2019-02-20T04:59:32.014Z,11.90
2019-02-20T05:00:38.759Z,11.80
2019-02-20T05:01:45.846Z,12.77
2019-02-20T05:02:52.923Z,12.43
2019-02-20T05:03:59.962Z,11.07
2019-02-20T05:05:06.819Z,10.85
2019-02-20T05:06:13.719Z,11.03
2019-02-20T05:07:20.802Z,11.93
2019-02-20T05:08:28.185Z,10.40
2019-02-20T05:09:35.097Z,10.45
2019-02-20T05:10:41.833Z,12.37
2019-02-20T05:11:48.930Z,11.73
2019-02-20T05:12:55.618Z,10.93
2019-02-20T05:14:02.318Z,11.93
2019-02-20T05:15:09.420Z,11.73
2019-02-20T05:16:16.531Z,12.33
2019-02-20T05:17:23.789Z,12.53
2019-02-20T05:18:30.466Z,12.13
2019-02-20T05:19:37.172Z,11.77
2019-02-20T05:20:44.010Z,13.13
2019-02-20T05:21:51.049Z,12.77
2019-02-20T05:22:57.749Z,10.80
2019-02-20T05:24:04.541Z,12.27
2019-02-20T05:25:11.247Z,13.40
2019-02-20T05:26:18.328Z,14.10
2019-02-20T05:27:25.510Z,14.40
2019-02-20T05:28:32.222Z,12.00
2019-02-20T05:29:39.166Z,12.37
2019-02-20T05:30:45.901Z,13.00
2019-02-20T05:31:53.416Z,14.10
2019-02-20T05:33:00.496Z,13.00
2019-02-20T05:34:07.166Z,13.10
2019-02-20T05:35:13.957Z,13.50
2019-02-20T05:36:21.111Z,14.80
2019-02-20T05:37:27.866Z,15.30
2019-02-20T05:38:34.581Z,14.73
2019-02-20T05:39:41.264Z,14.67
2019-02-20T05:40:48.091Z,14.75
2019-02-20T05:41:54.792Z,13.60
2019-02-20T05:43:01.841Z,14.50
2019-02-20T05:44:08.913Z,12.23
2019-02-20T05:45:15.991Z,13.00
2019-02-20T05:46:22.887Z,14.98
2019-02-20T05:47:29.976Z,15.50
2019-02-20T05:48:37.077Z,13.65
2019-02-20T05:49:43.713Z,15.28
2019-02-20T05:50:50.594Z,15.40
2019-02-20T05:51:57.311Z,13.93
2019-02-20T05:53:04.328Z,15.20
2019-02-20T05:54:11.069Z,15.23
2019-02-20T05:55:18.185Z,16.10
2019-02-20T05:56:25.295Z,15.87
2019-02-20T05:57:31.996Z,16.20
2019-02-20T05:58:39.408Z,15.47
2019-02-20T05:59:46.321Z,16.00
2019-02-20T06:00:53.026Z,16.57
2019-02-20T06:02:00.287Z,14.57
2019-02-20T06:03:07.003Z,16.73
2019-02-20T06:04:14.078Z,16.80
2019-02-20T06:05:20.802Z,16.93
2019-02-20T06:06:27.528Z,16.63
2019-02-20T06:07:34.257Z,17.10
2019-02-20T06:08:40.911Z,15.70
2019-02-20T06:09:48.387Z,17.80
2019-02-20T06:10:55.038Z,16.53
2019-02-20T06:12:02.179Z,17.50
2019-02-20T06:13:09.155Z,16.77
2019-02-20T06:14:15.938Z,15.40
2019-02-20T06:15:22.628Z,15.50
2019-02-20T06:16:30.501Z,17.70
2019-02-20T06:17:38.059Z,16.05
2019-02-20T06:18:45.283Z,17.60
2019-02-20T06:19:52.490Z,18.60
2019-02-20T06:20:59.530Z,17.30
2019-02-20T06:22:06.240Z,18.27
2019-02-20T06:23:13.405Z,17.17
2019-02-20T06:24:20.423Z,17.63
2019-02-20T06:25:27.392Z,18.12
2019-02-20T06:26:34.147Z,18.37
2019-02-20T06:27:40.896Z,18.10
2019-02-20T06:28:47.681Z,17.33
2019-02-20T06:29:54.680Z,17.57
2019-02-20T06:31:01.827Z,17.00
2019-02-20T06:32:08.513Z,17.13
2019-02-20T06:33:15.344Z,17.50
2019-02-20T06:34:22.093Z,16.43
2019-02-20T06:35:29.083Z,19.33
2019-02-20T06:36:36.205Z,17.65
2019-02-20T06:37:42.959Z,17.30
2019-02-20T06:38:50.053Z,17.87
2019-02-20T06:39:57.040Z,18.02
2019-02-20T06:41:04.558Z,18.00
2019-02-20T06:42:11.352Z,19.70
2019-02-20T06:43:18.091Z,16.95
2019-02-20T06:44:24.848Z,18.83
2019-02-20T06:45:32.392Z,18.90
2019-02-20T06:46:39.153Z,17.35
2019-02-20T06:47:46.188Z,20.17
2019-02-20T06:48:53.383Z,18.23
2019-02-20T06:50:01.234Z,17.73
2019-02-20T06:51:09.332Z,18.80
2019-02-20T06:52:16.465Z,19.90
2019-02-20T06:53:23.455Z,19.00
2019-02-20T06:54:30.194Z,19.13
2019-02-20T06:55:37.202Z,19.50
2019-02-20T06:56:44.324Z,17.83
2019-02-20T06:57:51.023Z,18.10
2019-02-20T06:58:57.716Z,19.43
2019-02-20T07:00:04.511Z,18.93
2019-02-20T07:01:11.225Z,20.20
2019-02-20T07:02:18.527Z,19.47
2019-02-20T07:03:25.365Z,19.75
2019-02-20T07:04:32.824Z,19.23
2019-02-20T07:05:46.015Z,20.23
2019-02-20T07:07:50.943Z,18.80
2019-02-20T07:09:38.346Z,18.95
2019-02-20T07:11:28.273Z,18.00
2019-02-20T07:12:58.576Z,17.90
2019-02-20T07:14:54.597Z,19.90
2019-02-20T07:17:00.025Z,19.47
2019-02-20T07:18:52.611Z,17.95
2019-02-20T07:20:57.353Z,19.17
2019-02-20T07:22:48.587Z,20.00
2019-02-20T07:24:33.283Z,20.13
2019-02-20T07:26:17.847Z,19.73
2019-02-20T07:28:23.782Z,18.90
2019-02-20T07:29:44.896Z,19.20
2019-02-20T07:30:52.478Z,20.68
2019-02-20T07:31:59.163Z,19.95
2019-02-20T07:33:05.872Z,20.67
2019-02-20T07:34:12.587Z,18.92
2019-02-20T07:35:19.373Z,18.50
2019-02-20T07:36:26.427Z,19.17
2019-02-20T07:37:33.226Z,19.87
2019-02-20T07:38:40.347Z,19.90
2019-02-20T07:39:47.341Z,19.83
2019-02-20T07:40:54.409Z,17.40
2019-02-20T07:42:01.273Z,19.03
2019-02-20T07:43:08.317Z,17.37
2019-02-20T07:44:15.017Z,17.43
2019-02-20T07:45:21.917Z,16.70
2019-02-20T07:46:30.772Z,17.70
2019-02-20T07:47:37.710Z,17.45
2019-02-20T07:48:44.503Z,18.33
2019-02-20T07:49:51.224Z,17.23
2019-02-20T07:50:57.949Z,16.37
2019-02-20T07:52:04.707Z,18.10
2019-02-20T07:53:11.434Z,18.10
2019-02-20T07:54:18.255Z,17.30
2019-02-20T07:55:25.331Z,15.83
2019-02-20T07:56:32.445Z,17.47
2019-02-20T07:57:39.161Z,16.30
2019-02-20T07:58:46.195Z,17.10
2019-02-20T07:59:52.896Z,14.98
2019-02-20T08:00:59.621Z,15.53
2019-02-20T08:02:06.325Z,14.95
2019-02-20T08:03:13.551Z,15.30
2019-02-20T08:04:20.723Z,16.43
2019-02-20T08:05:27.441Z,15.80
2019-02-20T08:06:34.598Z,14.83
2019-02-20T08:07:41.300Z,14.50
2019-02-20T08:08:48.023Z,15.43
2019-02-20T08:09:54.844Z,15.35
2019-02-20T08:11:02.020Z,17.10
2019-02-20T08:12:08.805Z,16.80
2019-02-20T08:13:16.275Z,13.90
2019-02-20T08:14:23.031Z,15.27
2019-02-20T08:15:29.712Z,14.50
2019-02-20T08:16:37.151Z,13.60
2019-02-20T08:17:43.920Z,14.47
2019-02-20T08:18:50.684Z,13.63
2019-02-20T08:19:57.387Z,13.83
2019-02-20T08:21:04.735Z,14.00
2019-02-20T08:22:11.788Z,14.20
2019-02-20T08:23:18.484Z,13.23
2019-02-20T08:24:25.545Z,13.13
2019-02-20T08:25:32.646Z,14.10
2019-02-20T08:26:39.815Z,12.47
2019-02-20T08:27:47.398Z,14.03
2019-02-20T08:28:54.134Z,13.60
2019-02-20T08:30:00.904Z,12.50
2019-02-20T08:31:08.335Z,14.20
2019-02-20T08:32:15.458Z,12.37
2019-02-20T08:33:22.252Z,13.70
2019-02-20T08:34:28.982Z,12.33
2019-02-20T08:35:35.678Z,11.77
2019-02-20T08:36:42.375Z,12.77
2019-02-20T08:37:49.213Z,12.73
2019-02-20T08:38:55.930Z,12.13
2019-02-20T08:40:02.792Z,12.17
2019-02-20T08:41:09.569Z,12.20
2019-02-20T08:42:16.679Z,11.87
2019-02-20T08:43:23.393Z,13.27
2019-02-20T08:44:30.116Z,12.43
2019-02-20T08:45:37.164Z,11.40
2019-02-20T08:46:44.842Z,11.53
2019-02-20T08:47:51.938Z,11.67
2019-02-20T08:48:58.643Z,13.30
2019-02-20T08:50:06.290Z,12.43
2019-02-20T08:51:13.077Z,11.50
2019-02-20T08:52:19.934Z,11.73
2019-02-20T08:53:27.029Z,10.67
2019-02-20T08:54:34.006Z,10.63
2019-02-20T08:55:40.708Z,11.37
2019-02-20T08:56:47.884Z,10.73
2019-02-20T08:57:55.146Z,10.40
2019-02-20T08:59:01.837Z,10.20
2019-02-20T09:00:12.095Z,10.20
2019-02-20T09:01:18.774Z,11.00
2019-02-20T09:02:25.557Z,10.60
2019-02-20T09:03:32.270Z,10.37
2019-02-20T09:04:39.195Z,9.50
2019-02-20T09:05:46.136Z,11.30
2019-02-20T09:06:52.869Z,10.90
2019-02-20T09:07:59.947Z,11.00
2019-02-20T09:09:07.877Z,10.63
2019-02-20T09:10:17.179Z,10.60
2019-02-20T09:11:23.801Z,9.40
2019-02-20T09:12:30.843Z,9.03
2019-02-20T09:13:37.938Z,9.60
2019-02-20T09:14:44.652Z,8.70
2019-02-20T09:15:51.375Z,9.50
2019-02-20T09:16:58.078Z,8.23
2019-02-20T09:18:04.814Z,10.20
2019-02-20T09:19:11.559Z,10.77
2019-02-20T09:20:18.245Z,9.57
2019-02-20T09:21:24.973Z,10.10
2019-02-20T09:22:31.724Z,9.40
2019-02-20T09:23:38.867Z,9.00
2019-02-20T09:24:45.583Z,9.93
2019-02-20T09:25:52.747Z,11.17
2019-02-20T09:26:59.538Z,8.57
2019-02-20T09:28:06.301Z,9.47
2019-02-20T09:29:13.290Z,9.60
2019-02-20T09:30:28.360Z,10.23
2019-02-20T09:31:28.482Z,9.00
2019-02-20T09:32:35.238Z,9.20
2019-02-20T09:33:41.932Z,9.10
2019-02-20T09:34:49.026Z,9.47
2019-02-20T09:35:56.179Z,8.90
2019-02-20T09:37:04.204Z,9.37
2019-02-20T09:38:10.971Z,9.90
2019-02-20T09:39:36.673Z,9.83
2019-02-20T09:40:43.684Z,9.40
2019-02-20T09:41:50.477Z,9.20
2019-02-20T09:42:57.448Z,8.20
2019-02-20T09:44:04.495Z,8.40
2019-02-20T09:45:11.439Z,8.87
2019-02-20T09:46:18.131Z,8.67
2019-02-20T09:47:25.080Z,8.83
2019-02-20T09:48:32.114Z,8.07
2019-02-20T09:49:39.453Z,9.57
2019-02-20T09:50:47.714Z,8.10
2019-02-20T09:51:54.719Z,9.10
2019-02-20T09:53:01.744Z,8.67
2019-02-20T09:54:08.831Z,8.20
2019-02-20T09:55:15.591Z,8.13
2019-02-20T09:56:22.631Z,7.50
2019-02-20T09:57:29.342Z,7.17
2019-02-20T09:58:36.029Z,8.60
2019-02-20T09:59:42.788Z,8.43
2019-02-20T10:00:49.477Z,7.50
2019-02-20T10:01:57.373Z,7.50
2019-02-20T10:03:04.408Z,8.20
2019-02-20T10:04:11.184Z,8.00
2019-02-20T10:05:17.962Z,7.60
2019-02-20T10:06:24.664Z,7.53
2019-02-20T10:07:31.559Z,8.10
2019-02-20T10:08:38.219Z,7.60
2019-02-20T10:09:44.939Z,7.20
2019-02-20T10:10:51.743Z,7.80
2019-02-20T10:11:58.460Z,7.00
2019-02-20T10:13:05.754Z,7.13
2019-02-20T10:14:12.573Z,7.70
2019-02-20T10:15:19.287Z,7.17
2019-02-20T10:16:26.789Z,6.50
2019-02-20T10:17:33.515Z,6.70
2019-02-20T10:18:40.252Z,6.77
2019-02-20T10:19:47.335Z,6.80
2019-02-20T10:20:54.104Z,6.87
2019-02-20T10:22:01.212Z,7.90
2019-02-20T10:23:07.871Z,7.63
2019-02-20T10:24:15.405Z,7.30
2019-02-20T10:25:22.167Z,7.27
2019-02-20T10:26:29.003Z,6.30
2019-02-20T10:27:36.092Z,7.30
2019-02-20T10:28:42.792Z,6.97
2019-02-20T10:29:49.492Z,6.00
2019-02-20T10:30:56.780Z,6.50
2019-02-20T10:32:03.445Z,6.60
2019-02-20T10:33:10.188Z,6.07
2019-02-20T10:34:16.918Z,5.77
2019-02-20T10:35:23.627Z,6.03
2019-02-20T10:36:30.942Z,6.87
2019-02-20T10:37:38.011Z,6.60
2019-02-20T10:38:44.750Z,6.23
2019-02-20T10:39:51.561Z,6.23
2019-02-20T10:40:58.258Z,6.53
2019-02-20T10:42:06.100Z,5.77
2019-02-20T10:43:12.772Z,6.30
2019-02-20T10:44:19.486Z,6.33
2019-02-20T10:45:26.503Z,5.83
2019-02-20T10:46:33.595Z,7.17
2019-02-20T10:47:40.701Z,6.90
2019-02-20T10:48:47.444Z,7.70
2019-02-20T10:49:54.116Z,6.20
2019-02-20T10:51:00.795Z,6.57
2019-02-20T10:52:07.489Z,7.97
2019-02-20T10:53:14.413Z,6.53
2019-02-20T10:54:21.105Z,6.73
2019-02-20T10:55:27.853Z,7.00
2019-02-20T10:56:34.871Z,6.90
2019-02-20T10:57:41.588Z,6.90
2019-02-20T10:58:48.291Z,6.23
2019-02-20T10:59:54.969Z,7.33
2019-02-20T11:01:02.164Z,6.40
2019-02-20T11:02:09.402Z,5.90
2019-02-20T11:03:16.095Z,6.00
2019-02-20T11:04:22.908Z,6.60
2019-02-20T11:05:30.055Z,5.50
2019-02-20T11:06:36.750Z,5.87
2019-02-20T11:07:43.790Z,6.90
2019-02-20T11:08:50.763Z,5.67
2019-02-20T11:09:58.259Z,6.10
2019-02-20T11:11:05.349Z,5.93
2019-02-20T11:12:12.335Z,5.87
2019-02-20T11:13:19.402Z,6.60
2019-02-20T11:14:26.143Z,6.37
2019-02-20T11:15:33.258Z,6.17
2019-02-20T11:16:40.693Z,7.73
2019-02-20T11:17:47.392Z,7.20
2019-02-20T11:18:54.767Z,5.90
2019-02-20T11:20:01.485Z,7.07
2019-02-20T11:21:08.516Z,6.30
2019-02-20T11:22:15.658Z,5.60
2019-02-20T11:23:22.331Z,7.00
2019-02-20T11:24:29.747Z,5.93
2019-02-20T11:25:36.820Z,6.10
2019-02-20T11:26:53.175Z,6.77
2019-02-20T11:27:52.725Z,6.40
2019-02-20T11:28:59.513Z,6.23
2019-02-20T11:30:08.591Z,5.47
2019-02-20T11:31:15.270Z,5.87
2019-02-20T11:32:22.019Z,5.87
2019-02-20T11:33:29.110Z,6.83
2019-02-20T11:34:36.104Z,6.17
2019-02-20T11:35:42.989Z,5.80
2019-02-20T11:36:49.702Z,6.03
2019-02-20T11:37:56.784Z,5.67
2019-02-20T11:39:05.187Z,7.10
2019-02-20T11:40:12.286Z,6.70
2019-02-20T11:41:19.002Z,5.20
2019-02-20T11:42:25.980Z,5.60
2019-02-20T11:43:33.168Z,5.83
2019-02-20T11:44:40.439Z,5.87
2019-02-20T11:45:47.516Z,6.00
2019-02-20T11:46:54.206Z,6.80
2019-02-20T11:48:01.271Z,6.00
2019-02-20T11:49:08.335Z,5.30
2019-02-20T11:50:15.613Z,5.80
2019-02-20T11:51:22.418Z,6.70
2019-02-20T11:52:29.098Z,7.00
2019-02-20T11:53:37.403Z,6.60
2019-02-20T11:54:44.228Z,6.73
2019-02-20T11:55:50.971Z,5.33
2019-02-20T11:56:58.071Z,5.30
2019-02-20T11:58:05.063Z,5.70
2019-02-20T11:59:11.825Z,5.90
2019-02-20T12:00:18.951Z,5.83
2019-02-20T12:01:26.200Z,5.70
2019-02-20T12:02:37.440Z,4.80
2019-02-20T12:03:42.025Z,5.30
2019-02-20T12:04:48.768Z,4.83
2019-02-20T12:05:55.566Z,5.00
2019-02-20T12:07:02.268Z,5.77
2019-02-20T12:08:09.485Z,5.23
2019-02-20T12:09:16.239Z,5.30
2019-02-20T12:10:23.145Z,4.80
2019-02-20T12:11:30.931Z,4.30
2019-02-20T12:12:37.953Z,4.80
2019-02-20T12:13:44.798Z,5.63
2019-02-20T12:14:51.705Z,5.13
2019-02-20T12:15:58.394Z,5.00
2019-02-20T12:17:05.274Z,5.37
2019-02-20T12:18:17.375Z,4.50
2019-02-20T12:19:23.491Z,5.10
2019-02-20T12:20:29.902Z,5.77
2019-02-20T12:21:36.659Z,5.00
2019-02-20T12:22:43.357Z,5.93
2019-02-20T12:23:50.506Z,5.73
2019-02-20T12:24:59.301Z,5.07
2019-02-20T12:26:06.398Z,4.80
2019-02-20T12:27:13.435Z,4.47
2019-02-20T12:28:20.511Z,4.37
2019-02-20T12:29:27.252Z,4.97
2019-02-20T12:30:34.261Z,4.90
2019-02-20T12:31:41.009Z,5.27
2019-02-20T12:32:48.069Z,5.90
2019-02-20T12:33:54.736Z,5.33
2019-02-20T12:35:01.857Z,5.23
2019-02-20T12:36:08.877Z,5.80
2019-02-20T12:37:15.626Z,4.57
2019-02-20T12:38:22.857Z,4.70
2019-02-20T12:39:29.554Z,5.73
2019-02-20T12:40:36.231Z,5.03
2019-02-20T12:41:43.319Z,5.00
2019-02-20T12:42:50.367Z,5.70
2019-02-20T12:43:57.045Z,6.30
2019-02-20T12:45:03.739Z,4.70
2019-02-20T12:46:10.777Z,5.30
2019-02-20T12:47:17.848Z,5.87
2019-02-20T12:48:25.093Z,6.10
2019-02-20T12:49:31.820Z,6.87
2019-02-20T12:50:38.506Z,5.77
2019-02-20T12:51:45.637Z,6.10
2019-02-20T12:52:52.745Z,6.07
2019-02-20T12:53:59.478Z,5.33
2019-02-20T12:55:06.909Z,6.40
2019-02-20T12:56:13.968Z,7.20
2019-02-20T12:57:21.178Z,7.50
2019-02-20T12:58:27.880Z,6.60
2019-02-20T12:59:36.716Z,6.57
2019-02-20T13:00:43.784Z,6.30
2019-02-20T13:01:50.885Z,6.40
2019-02-20T13:02:57.642Z,6.77
2019-02-20T13:04:04.292Z,6.10
2019-02-20T13:05:11.297Z,7.00
2019-02-20T13:06:18.546Z,5.93
2019-02-20T13:07:25.268Z,6.43
2019-02-20T13:08:32.306Z,5.60
2019-02-20T13:09:39.175Z,5.90
2019-02-20T13:10:46.529Z,5.87
2019-02-20T13:11:53.897Z,7.17
2019-02-20T13:13:01.008Z,6.20
2019-02-20T13:14:07.873Z,5.40
2019-02-20T13:15:15.412Z,5.97
2019-02-20T13:16:22.491Z,6.03
2019-02-20T13:17:29.574Z,6.00
2019-02-20T13:18:36.225Z,6.37
2019-02-20T13:19:43.372Z,5.77
2019-02-20T13:20:50.742Z,5.10
2019-02-20T13:21:57.781Z,5.73
2019-02-20T13:23:04.467Z,6.80
2019-02-20T13:24:11.227Z,6.17
2019-02-20T13:25:18.305Z,5.70
2019-02-20T13:26:25.370Z,6.10
2019-02-20T13:27:32.501Z,6.40
2019-02-20T13:28:39.544Z,6.27
2019-02-20T13:29:46.311Z,6.10
2019-02-20T13:30:53.649Z,6.63
2019-02-20T13:32:00.843Z,5.73
2019-02-20T13:33:08.159Z,5.67
2019-02-20T13:34:14.935Z,6.20
2019-02-20T13:35:22.020Z,6.70
2019-02-20T13:36:29.106Z,6.90
2019-02-20T13:37:35.794Z,6.30
2019-02-20T13:38:42.857Z,6.30
2019-02-20T13:39:52.136Z,5.80
2019-02-20T13:40:58.735Z,5.80
2019-02-20T13:42:06.134Z,6.17
2019-02-20T13:43:13.258Z,6.20
2019-02-20T13:44:20.014Z,5.83
2019-02-20T13:45:26.802Z,6.13
2019-02-20T13:46:33.997Z,5.40
2019-02-20T13:47:40.684Z,6.10
2019-02-20T13:48:47.764Z,7.23
2019-02-20T13:49:54.499Z,5.77
2019-02-20T13:51:01.696Z,5.60
2019-02-20T13:52:08.784Z,5.60
2019-02-20T13:53:16.267Z,6.30
2019-02-20T13:54:23.374Z,5.47
2019-02-20T13:55:34.390Z,6.50
2019-02-20T13:56:38.744Z,8.03
2019-02-20T13:57:45.482Z,6.83
2019-02-20T13:58:52.203Z,6.23
2019-02-20T13:59:58.969Z,5.60
2019-02-20T14:01:05.736Z,5.80
2019-02-20T14:02:13.130Z,6.47
2019-02-20T14:03:20.009Z,7.10
2019-02-20T14:04:27.138Z,6.90
2019-02-20T14:05:34.591Z,6.97
2019-02-20T14:06:41.782Z,7.63
2019-02-20T14:07:48.556Z,7.83
2019-02-20T14:08:55.616Z,7.63
2019-02-20T14:10:02.809Z,7.43
2019-02-20T14:11:09.806Z,7.83
2019-02-20T14:12:17.219Z,7.37
2019-02-20T14:13:23.978Z,7.50
2019-02-20T14:14:30.829Z,7.83
2019-02-20T14:15:37.551Z,8.53
2019-02-20T14:16:45.135Z,7.90
2019-02-20T14:17:52.206Z,7.33
2019-02-20T14:18:59.682Z,7.67
2019-02-20T14:20:08.475Z,7.40
2019-02-20T14:21:15.690Z,7.20
2019-02-20T14:22:22.814Z,6.60
2019-02-20T14:23:30.188Z,7.30
2019-02-20T14:24:36.919Z,7.07
2019-02-20T14:25:44.445Z,7.20
2019-02-20T14:26:51.334Z,6.47
2019-02-20T14:27:58.224Z,6.27
2019-02-20T14:29:04.958Z,7.30
2019-02-20T14:30:12.102Z,6.73
2019-02-20T14:31:19.285Z,7.70
2019-02-20T14:32:26.501Z,6.53
2019-02-20T14:33:33.544Z,7.27
2019-02-20T14:34:40.536Z,8.43
2019-02-20T14:35:47.837Z,7.40
2019-02-20T14:36:55.170Z,7.90
2019-02-20T14:38:02.306Z,6.47
2019-02-20T14:39:09.125Z,7.70
2019-02-20T14:40:16.251Z,7.00
2019-02-20T14:41:22.950Z,6.40
2019-02-20T14:42:29.713Z,6.60
2019-02-20T14:43:37.050Z,6.27
2019-02-20T14:44:43.927Z,5.60
2019-02-20T14:45:50.621Z,5.60
2019-02-20T14:46:57.321Z,6.57
2019-02-20T14:48:04.071Z,5.27
2019-02-20T14:49:11.325Z,5.73
2019-02-20T14:50:18.064Z,6.20
2019-02-20T14:51:25.166Z,6.47
2019-02-20T14:52:31.910Z,5.63